createdAt,value
2024-03-31T00:01:06.750Z,100051.09
2024-03-31T00:03:34.158Z,100053.31
2024-03-31T00:06:00.810Z,100058.34
2024-03-31T00:08:27.422Z,100054.75
2024-03-31T00:11:01.574Z,100041.50
2024-03-31T00:13:31.021Z,100037.03
2024-03-31T00:15:57.726Z,100041.41
2024-03-31T00:18:24.419Z,100040.81
2024-03-31T00:20:59.938Z,100033.22
2024-03-31T00:23:26.625Z,100033.56
2024-03-31T00:26:00.051Z,100019.50
2024-03-31T00:28:27.495Z,100019.50
2024-03-31T00:30:57.736Z,100019.50
2024-03-31T00:33:25.699Z,100011.31
2024-03-31T00:35:57.831Z,100020.00
2024-03-31T00:38:25.723Z,100020.41
2024-03-31T00:40:52.800Z,100013.88
2024-03-31T00:43:19.861Z,100002.66
2024-03-31T00:45:46.644Z,100006.81
2024-03-31T00:48:13.389Z,99986.53
2024-03-31T00:50:40.118Z,99983.66
2024-03-31T00:53:06.860Z,99981.66
2024-03-31T00:55:33.898Z,99984.72
2024-03-31T00:58:00.901Z,99981.28
2024-03-31T01:00:28.137Z,99978.41
2024-03-31T01:02:55.020Z,99986.88
2024-03-31T01:05:21.678Z,99983.81
2024-03-31T01:07:48.436Z,99998.19
2024-03-31T01:10:15.329Z,99998.28
2024-03-31T01:12:42.120Z,100004.50
2024-03-31T01:15:08.944Z,100012.94
2024-03-31T01:17:35.785Z,100012.84
2024-03-31T01:20:02.670Z,100008.59
2024-03-31T01:22:30.050Z,100009.97
2024-03-31T01:24:56.699Z,100015.00
2024-03-31T01:27:23.347Z,100019.25
2024-03-31T01:29:49.953Z,100031.31
2024-03-31T01:32:16.713Z,100034.81
2024-03-31T01:34:45.620Z,100041.78
2024-03-31T01:37:12.294Z,100040.97
2024-03-31T01:39:39.015Z,100046.25
2024-03-31T01:42:05.938Z,100039.47
2024-03-31T01:44:32.593Z,100041.13
2024-03-31T01:46:59.238Z,100035.75
2024-03-31T01:49:25.962Z,100034.75
2024-03-31T01:51:52.603Z,100027.53
2024-03-31T01:54:19.197Z,100029.09
2024-03-31T01:56:46.544Z,100021.19
2024-03-31T01:59:13.141Z,100015.75
2024-03-31T02:01:39.791Z,100009.59
2024-03-31T02:04:06.467Z,100005.16
2024-03-31T02:06:33.117Z,99993.84
2024-03-31T02:08:59.738Z,99991.25
2024-03-31T02:11:26.384Z,99979.00
2024-03-31T02:13:53.065Z,99985.84
2024-03-31T02:16:22.015Z,99987.53
2024-03-31T02:18:48.676Z,99998.00
2024-03-31T02:21:15.371Z,99992.91
2024-03-31T02:23:42.023Z,99988.34
2024-03-31T02:26:08.673Z,100003.13
2024-03-31T02:28:36.592Z,100006.44
2024-03-31T02:31:03.925Z,100015.16
2024-03-31T02:33:30.546Z,100021.03
2024-03-31T02:35:57.222Z,100022.69
2024-03-31T02:38:23.871Z,100016.81
2024-03-31T02:40:50.501Z,100021.41
2024-03-31T02:43:17.124Z,100022.97
2024-03-31T02:45:43.829Z,100018.31
2024-03-31T02:48:10.467Z,100021.78
2024-03-31T02:50:37.190Z,100009.03
2024-03-31T02:53:03.942Z,100008.19
2024-03-31T02:55:30.575Z,100000.25
2024-03-31T02:57:57.192Z,99995.88
2024-03-31T03:00:23.908Z,100000.13
2024-03-31T03:02:50.797Z,100007.00
2024-03-31T03:05:17.502Z,100007.09
2024-03-31T03:07:44.133Z,100013.31
2024-03-31T03:10:10.802Z,100012.38
2024-03-31T03:12:37.546Z,100020.16
2024-03-31T03:15:04.605Z,100028.81
2024-03-31T03:17:31.236Z,100023.50
2024-03-31T03:19:58.092Z,100015.72
2024-03-31T03:22:24.924Z,100017.31
2024-03-31T03:24:55.267Z,100016.19
2024-03-31T03:27:21.984Z,100004.94
2024-03-31T03:29:48.672Z,100002.53
2024-03-31T03:32:15.342Z,99997.25
2024-03-31T03:34:41.940Z,99996.22
2024-03-31T03:37:08.558Z,99998.91
2024-03-31T03:39:36.453Z,99988.53
2024-03-31T03:42:06.679Z,99983.41
2024-03-31T03:44:33.292Z,99978.41
2024-03-31T03:46:59.944Z,99971.34
2024-03-31T03:49:26.605Z,99976.66
2024-03-31T03:51:53.312Z,99967.19
2024-03-31T03:54:19.912Z,99964.69
2024-03-31T03:56:46.606Z,99962.91
2024-03-31T03:59:13.774Z,99950.94
2024-03-31T04:01:40.845Z,99944.06
2024-03-31T04:04:07.483Z,99946.94
2024-03-31T04:06:34.100Z,99945.28
2024-03-31T04:09:00.708Z,99943.53
2024-03-31T04:11:27.352Z,99941.13
2024-03-31T04:13:53.976Z,99941.13
2024-03-31T04:16:20.631Z,99937.78
2024-03-31T04:18:47.233Z,99932.78
2024-03-31T04:21:13.903Z,99937.34
2024-03-31T04:23:41.191Z,99928.59
2024-03-31T04:26:07.819Z,99944.28
2024-03-31T04:28:34.413Z,99948.56
2024-03-31T04:31:04.462Z,99950.22
2024-03-31T04:33:34.070Z,99947.81
2024-03-31T04:36:01.490Z,99940.84
2024-03-31T04:38:28.111Z,99945.22
2024-03-31T04:40:56.966Z,99940.94
2024-03-31T04:43:24.289Z,99952.34
2024-03-31T04:46:08.886Z,99959.88
2024-03-31T04:48:36.732Z,99959.31
2024-03-31T04:51:07.651Z,99966.84
2024-03-31T04:53:35.630Z,99962.47
2024-03-31T04:56:03.117Z,99960.72
2024-03-31T04:58:30.441Z,99962.38
2024-03-31T05:00:57.524Z,99956.34
2024-03-31T05:03:25.060Z,99954.59
2024-03-31T05:05:52.168Z,99956.91
2024-03-31T05:08:18.828Z,99958.47
2024-03-31T05:10:55.614Z,99952.16
2024-03-31T05:13:24.065Z,99957.63
2024-03-31T05:16:03.140Z,99948.72
2024-03-31T05:18:30.024Z,99945.75
2024-03-31T05:21:06.032Z,99947.25
2024-03-31T05:23:33.218Z,99950.97
2024-03-31T05:26:00.959Z,99951.91
2024-03-31T05:28:28.802Z,99953.47
2024-03-31T05:30:55.876Z,99952.44
2024-03-31T05:33:22.659Z,99948.81
2024-03-31T05:35:49.566Z,99945.47
2024-03-31T05:38:17.360Z,99934.91
2024-03-31T05:40:45.737Z,99934.16
2024-03-31T05:43:13.049Z,99937.69
2024-03-31T05:45:41.370Z,99935.81
2024-03-31T05:48:09.723Z,99928.03
2024-03-31T05:50:36.499Z,99930.63
2024-03-31T05:53:03.806Z,99925.25
2024-03-31T05:55:30.498Z,99932.97
2024-03-31T05:57:57.529Z,99929.31
2024-03-31T06:00:25.267Z,99929.13
2024-03-31T06:02:52.236Z,99927.25
2024-03-31T06:05:19.151Z,99918.81
2024-03-31T06:07:50.413Z,99909.06
2024-03-31T06:10:17.874Z,99894.59
2024-03-31T06:12:44.546Z,99893.78
2024-03-31T06:15:11.457Z,99885.88
2024-03-31T06:17:40.688Z,99892.72
2024-03-31T06:20:08.690Z,99886.63
2024-03-31T06:22:42.058Z,99880.31
2024-03-31T06:25:09.228Z,99875.19
2024-03-31T06:27:36.101Z,99877.50
2024-03-31T06:30:04.110Z,99876.47
2024-03-31T06:32:30.752Z,99871.38
2024-03-31T06:34:57.617Z,99871.47
2024-03-31T06:37:24.541Z,99891.31
2024-03-31T06:39:51.151Z,99905.78
2024-03-31T06:42:18.442Z,99906.63
2024-03-31T06:44:45.259Z,99911.06
2024-03-31T06:47:12.203Z,99920.47
2024-03-31T06:49:39.497Z,99918.50
2024-03-31T06:52:06.317Z,99908.94
2024-03-31T06:54:33.008Z,99898.03
2024-03-31T06:56:59.623Z,99896.63
2024-03-31T06:59:26.323Z,99893.78
2024-03-31T07:01:52.938Z,99884.94
2024-03-31T07:04:19.585Z,99888.16
2024-03-31T07:06:47.010Z,99888.69
2024-03-31T07:09:13.642Z,99881.53
2024-03-31T07:11:40.368Z,99882.16
2024-03-31T07:14:07.034Z,99879.53
2024-03-31T07:16:33.698Z,99881.97
2024-03-31T07:19:00.484Z,99873.22
2024-03-31T07:21:27.207Z,99865.81
2024-03-31T07:23:53.942Z,99867.09
2024-03-31T07:26:20.640Z,99880.31
2024-03-31T07:28:47.278Z,99874.94
2024-03-31T07:31:13.906Z,99877.63
2024-03-31T07:33:40.521Z,99883.88
2024-03-31T07:36:07.231Z,99885.94
2024-03-31T07:38:33.927Z,99880.44
2024-03-31T07:41:00.563Z,99869.81
2024-03-31T07:43:28.459Z,99873.66
2024-03-31T07:45:55.134Z,99870.63
2024-03-31T07:48:21.761Z,99867.41
2024-03-31T07:50:48.411Z,99859.47
2024-03-31T07:53:15.053Z,99845.94
2024-03-31T07:55:41.899Z,99858.00
2024-03-31T07:58:08.550Z,99851.88
2024-03-31T08:00:35.325Z,99852.72
2024-03-31T08:03:01.983Z,99849.06
2024-03-31T08:05:28.760Z,99847.41
2024-03-31T08:07:56.061Z,99846.25
2024-03-31T08:10:22.674Z,99849.25
2024-03-31T08:12:49.383Z,99849.97
2024-03-31T08:15:16.089Z,99854.88
2024-03-31T08:17:42.691Z,99842.13
2024-03-31T08:20:09.820Z,99837.22
2024-03-31T08:22:36.423Z,99831.34
2024-03-31T08:25:03.265Z,99830.81
2024-03-31T08:27:29.940Z,99836.34
2024-03-31T08:29:56.612Z,99829.28
2024-03-31T08:32:23.334Z,99822.78
2024-03-31T08:34:51.437Z,99823.75
2024-03-31T08:37:18.131Z,99820.56
2024-03-31T08:39:45.678Z,99817.00
2024-03-31T08:42:38.121Z,99823.75
2024-03-31T08:45:06.535Z,99824.38
2024-03-31T08:47:35.585Z,99823.19
2024-03-31T08:50:02.314Z,99818.00
2024-03-31T08:52:29.539Z,99832.91
2024-03-31T08:54:57.881Z,99835.09
2024-03-31T08:57:24.825Z,99828.50
2024-03-31T08:59:51.526Z,99833.91
2024-03-31T09:02:23.631Z,99834.63
2024-03-31T09:04:51.288Z,99837.25
2024-03-31T09:07:18.058Z,99831.66
2024-03-31T09:09:44.781Z,99834.28
2024-03-31T09:12:12.392Z,99832.94
2024-03-31T09:14:40.089Z,99827.84
2024-03-31T09:17:11.003Z,99826.78
2024-03-31T09:19:38.755Z,99829.63
2024-03-31T09:22:05.747Z,99833.22
2024-03-31T09:24:33.638Z,99824.78
2024-03-31T09:27:01.438Z,99810.03
2024-03-31T09:29:28.895Z,99812.88
2024-03-31T09:32:16.036Z,99798.00
2024-03-31T09:34:43.917Z,99795.28
2024-03-31T09:37:11.828Z,99797.91
2024-03-31T09:39:39.368Z,99790.16
2024-03-31T09:42:07.747Z,99784.53
2024-03-31T09:44:37.757Z,99781.75
2024-03-31T09:47:16.145Z,99789.50
2024-03-31T09:50:00.243Z,99789.06
2024-03-31T09:52:32.356Z,99786.94
2024-03-31T09:55:08.106Z,99783.97
2024-03-31T09:57:42.282Z,99789.41
2024-03-31T10:00:14.623Z,99781.69
2024-03-31T10:02:47.476Z,99780.50
2024-03-31T10:05:21.159Z,99782.38
2024-03-31T10:07:48.710Z,99773.69
2024-03-31T10:10:16.648Z,99772.16
2024-03-31T10:12:45.395Z,99765.88
2024-03-31T10:15:16.375Z,99752.28
2024-03-31T10:17:46.123Z,99750.41
2024-03-31T10:20:15.429Z,99749.00
2024-03-31T10:22:44.312Z,99744.94
2024-03-31T10:25:11.657Z,99749.19
2024-03-31T10:27:42.322Z,99745.22
2024-03-31T10:30:10.244Z,99751.16
2024-03-31T10:32:38.074Z,99753.13
2024-03-31T10:35:06.211Z,99762.34
2024-03-31T10:37:33.943Z,99759.72
2024-03-31T10:40:04.207Z,99758.84
2024-03-31T10:42:32.092Z,99765.06
2024-03-31T10:44:58.750Z,99758.84
2024-03-31T10:47:25.681Z,99756.63
2024-03-31T10:50:04.057Z,99747.06
2024-03-31T10:52:33.682Z,99749.69
2024-03-31T10:55:01.143Z,99745.78
2024-03-31T10:57:41.764Z,99758.44
2024-03-31T11:00:10.517Z,99754.47
2024-03-31T11:02:40.855Z,99758.22
2024-03-31T11:05:09.174Z,99753.44
2024-03-31T11:07:37.115Z,99749.59
2024-03-31T11:10:07.081Z,99753.03
2024-03-31T11:12:33.854Z,99749.41
2024-03-31T11:15:01.011Z,99745.44
2024-03-31T11:17:28.354Z,99738.88
2024-03-31T11:19:58.928Z,99745.84
2024-03-31T11:22:26.965Z,99732.53
2024-03-31T11:24:53.762Z,99727.94
2024-03-31T11:27:21.016Z,99729.22
2024-03-31T11:29:48.005Z,99720.44
2024-03-31T11:32:18.139Z,99717.19
2024-03-31T11:34:48.136Z,99719.22
2024-03-31T11:37:15.603Z,99713.50
2024-03-31T11:39:42.342Z,99708.69
2024-03-31T11:42:10.013Z,99707.66
2024-03-31T11:44:37.775Z,99697.03
2024-03-31T11:47:05.310Z,99691.09
2024-03-31T11:49:35.186Z,99686.16
2024-03-31T11:52:02.601Z,99684.03
2024-03-31T11:54:29.940Z,99675.06
2024-03-31T11:56:57.015Z,99671.25
2024-03-31T11:59:23.968Z,99680.94
2024-03-31T12:02:02.007Z,99682.91
2024-03-31T12:04:30.156Z,99677.63
2024-03-31T12:06:56.893Z,99669.94
2024-03-31T12:09:24.728Z,99671.16
2024-03-31T12:11:51.877Z,99666.31
2024-03-31T12:14:19.434Z,99669.03
2024-03-31T12:16:46.521Z,99658.94
2024-03-31T12:19:14.451Z,99661.13
2024-03-31T12:21:41.845Z,99667.81
2024-03-31T12:24:10.372Z,99669.25
2024-03-31T12:26:37.692Z,99655.28
2024-03-31T12:29:05.191Z,99669.09
2024-03-31T12:31:32.197Z,99660.47
2024-03-31T12:33:58.916Z,99658.44
2024-03-31T12:36:26.985Z,99650.84
2024-03-31T12:38:53.777Z,99644.13
2024-03-31T12:41:22.372Z,99643.78
2024-03-31T12:43:50.351Z,99639.44
2024-03-31T12:46:17.300Z,99632.88
2024-03-31T12:48:47.194Z,99643.91
2024-03-31T12:51:24.180Z,99636.03
2024-03-31T12:53:51.493Z,99631.34
2024-03-31T12:56:19.074Z,99620.69
2024-03-31T12:58:48.599Z,99621.88
2024-03-31T13:01:22.231Z,99617.44
2024-03-31T13:03:49.448Z,99609.00
2024-03-31T13:06:16.364Z,99596.59
2024-03-31T13:08:47.441Z,99596.56
2024-03-31T13:11:15.748Z,99600.22
2024-03-31T13:13:42.565Z,99599.50
2024-03-31T13:16:09.710Z,99600.41
2024-03-31T13:18:36.536Z,99593.81
2024-03-31T13:21:03.609Z,99599.97
2024-03-31T13:23:30.529Z,99602.50
2024-03-31T13:25:57.194Z,99605.69
2024-03-31T13:28:29.742Z,99601.72
2024-03-31T13:30:57.888Z,99594.56
2024-03-31T13:33:24.631Z,99597.53
2024-03-31T13:35:51.250Z,99599.19
2024-03-31T13:38:17.933Z,99589.56
2024-03-31T13:40:44.869Z,99587.06
2024-03-31T13:43:11.651Z,99587.28
2024-03-31T13:45:38.300Z,99584.84
2024-03-31T13:48:05.186Z,99581.97
2024-03-31T13:50:31.849Z,99579.97
2024-03-31T13:52:58.469Z,99576.34
2024-03-31T13:55:25.193Z,99567.91
2024-03-31T13:57:52.798Z,99560.31
2024-03-31T14:00:19.543Z,99563.31
2024-03-31T14:02:46.137Z,99558.19
2024-03-31T14:05:12.761Z,99556.84
2024-03-31T14:07:39.456Z,99548.63
2024-03-31T14:10:09.129Z,99547.28
2024-03-31T14:12:36.937Z,99536.22
2024-03-31T14:15:04.814Z,99538.78
2024-03-31T14:17:33.742Z,99536.69
2024-03-31T14:20:01.530Z,99532.47
2024-03-31T14:22:28.169Z,99525.06
2024-03-31T14:24:54.808Z,99525.28
2024-03-31T14:27:21.490Z,99523.53
2024-03-31T14:29:48.099Z,99527.19
2024-03-31T14:32:14.708Z,99520.13
2024-03-31T14:34:41.365Z,99496.09
2024-03-31T14:37:08.008Z,99501.50
2024-03-31T14:39:34.677Z,99495.72
2024-03-31T14:42:01.284Z,99495.56
2024-03-31T14:44:28.021Z,99489.16
2024-03-31T14:46:54.655Z,99477.91
2024-03-31T14:49:21.808Z,99467.75
2024-03-31T14:51:48.453Z,99468.06
2024-03-31T14:54:15.188Z,99468.13
2024-03-31T14:56:41.803Z,99467.75
2024-03-31T14:59:08.812Z,99469.22
2024-03-31T15:01:35.448Z,99465.44
2024-03-31T15:04:02.130Z,99458.03
2024-03-31T15:06:28.794Z,99459.19
2024-03-31T15:08:58.346Z,99447.38
2024-03-31T15:11:25.234Z,99445.06
2024-03-31T15:13:52.007Z,99437.38
2024-03-31T15:16:18.618Z,99434.19
2024-03-31T15:18:45.300Z,99434.38
2024-03-31T15:21:11.924Z,99433.63
2024-03-31T15:23:38.548Z,99433.00
2024-03-31T15:26:05.204Z,99429.44
2024-03-31T15:28:31.819Z,99430.69
2024-03-31T15:30:58.528Z,99432.88
2024-03-31T15:33:25.227Z,99432.38
2024-03-31T15:35:51.852Z,99431.56
2024-03-31T15:38:18.554Z,99421.81
2024-03-31T15:40:45.293Z,99418.00
2024-03-31T15:43:11.904Z,99412.88
2024-03-31T15:45:41.419Z,99422.44
2024-03-31T15:48:09.825Z,99422.28
2024-03-31T15:50:36.474Z,99414.34
2024-03-31T15:53:03.132Z,99412.19
2024-03-31T15:55:29.734Z,99418.09
2024-03-31T15:57:56.368Z,99408.03
2024-03-31T16:00:22.983Z,99405.91
2024-03-31T16:02:49.616Z,99396.94
2024-03-31T16:05:16.313Z,99386.22
2024-03-31T16:07:42.928Z,99387.88
2024-03-31T16:10:09.941Z,99387.03
2024-03-31T16:12:36.627Z,99387.03
2024-03-31T16:15:03.388Z,99374.69
2024-03-31T16:17:30.034Z,99376.47
2024-03-31T16:19:56.664Z,99385.63
2024-03-31T16:22:23.303Z,99371.50
2024-03-31T16:24:49.990Z,99373.75
2024-03-31T16:27:16.672Z,99375.66
2024-03-31T16:29:43.329Z,99381.06
2024-03-31T16:32:09.946Z,99390.97
2024-03-31T16:34:36.648Z,99392.38
2024-03-31T16:37:03.281Z,99402.59
2024-03-31T16:39:29.975Z,99423.47
2024-03-31T16:41:56.680Z,99436.00
2024-03-31T16:44:23.289Z,99452.34
2024-03-31T16:46:49.970Z,99470.75
2024-03-31T16:49:16.596Z,99468.50
2024-03-31T16:51:43.230Z,99487.91
2024-03-31T16:54:09.877Z,99490.34
2024-03-31T16:56:36.578Z,99472.97
2024-03-31T16:59:06.036Z,99484.09
2024-03-31T17:01:32.714Z,99487.09
2024-03-31T17:03:59.508Z,99470.00
2024-03-31T17:06:27.955Z,99480.75
2024-03-31T17:08:55.184Z,99465.28
2024-03-31T17:11:22.141Z,99455.69
2024-03-31T17:13:48.880Z,99464.88
2024-03-31T17:16:15.504Z,99468.88
2024-03-31T17:18:42.106Z,99461.03
2024-03-31T17:21:10.780Z,99462.84
2024-03-31T17:23:37.385Z,99460.69
2024-03-31T17:26:04.610Z,99461.09
2024-03-31T17:28:31.299Z,99441.41
2024-03-31T17:31:00.830Z,99445.84
2024-03-31T17:33:27.483Z,99425.31
2024-03-31T17:35:58.219Z,99429.06
2024-03-31T17:38:26.783Z,99429.31
2024-03-31T17:41:01.919Z,99434.84
2024-03-31T17:43:28.940Z,99424.75
2024-03-31T17:46:26.289Z,99421.19
2024-03-31T17:48:53.182Z,99428.22
2024-03-31T17:51:24.744Z,99424.94
2024-03-31T17:53:52.195Z,99426.00
2024-03-31T17:56:19.869Z,99422.69
2024-03-31T17:58:51.741Z,99414.03
2024-03-31T18:01:19.820Z,99420.50
2024-03-31T18:03:47.423Z,99413.88
2024-03-31T18:06:14.874Z,99418.28
2024-03-31T18:08:41.630Z,99414.97
2024-03-31T18:11:13.206Z,99418.28
2024-03-31T18:13:40.345Z,99417.34
2024-03-31T18:16:10.002Z,99425.19
2024-03-31T18:18:40.511Z,99426.00
2024-03-31T18:21:14.152Z,99422.56
2024-03-31T18:23:42.559Z,99429.84
2024-03-31T18:26:10.216Z,99438.66
2024-03-31T18:28:39.976Z,99436.19
2024-03-31T18:31:07.683Z,99437.28
2024-03-31T18:33:38.913Z,99431.22
2024-03-31T18:36:15.958Z,99426.66
2024-03-31T18:38:46.403Z,99426.97
2024-03-31T18:41:13.291Z,99426.66
2024-03-31T18:43:42.641Z,99417.03
2024-03-31T18:46:10.998Z,99418.66
2024-03-31T18:48:38.740Z,99415.22
2024-03-31T18:51:17.553Z,99409.47
2024-03-31T18:53:47.373Z,99402.28
2024-03-31T18:56:18.211Z,99417.16
2024-03-31T18:58:46.864Z,99417.28
2024-03-31T19:01:16.111Z,99413.84
2024-03-31T19:03:47.537Z,99421.25
2024-03-31T19:06:14.732Z,99423.84
2024-03-31T19:08:41.609Z,99435.53
2024-03-31T19:11:09.285Z,99435.81
2024-03-31T19:13:37.168Z,99426.59
2024-03-31T19:16:05.170Z,99432.63
2024-03-31T19:18:34.943Z,99435.13
2024-03-31T19:21:01.694Z,99441.06
2024-03-31T19:23:31.883Z,99443.38
2024-03-31T19:26:03.982Z,99447.22
2024-03-31T19:28:31.626Z,99449.72
2024-03-31T19:30:58.574Z,99460.44
2024-03-31T19:33:25.451Z,99459.75
2024-03-31T19:35:52.060Z,99453.13
2024-03-31T19:38:18.957Z,99458.22
2024-03-31T19:40:54.575Z,99454.66
2024-03-31T19:43:21.233Z,99455.59
2024-03-31T19:45:47.860Z,99455.06
2024-03-31T19:48:14.530Z,99450.91
2024-03-31T19:50:41.167Z,99457.09
2024-03-31T19:53:07.774Z,99452.97
2024-03-31T19:55:34.406Z,99455.69
2024-03-31T19:58:01.029Z,99441.94
2024-03-31T20:00:27.722Z,99448.94
2024-03-31T20:02:55.314Z,99441.38
2024-03-31T20:05:21.984Z,99444.00
2024-03-31T20:07:52.477Z,99437.91
2024-03-31T20:10:19.122Z,99441.91
2024-03-31T20:12:45.791Z,99441.31
2024-03-31T20:15:12.426Z,99448.91
2024-03-31T20:17:39.055Z,99428.84
2024-03-31T20:20:06.787Z,99435.81
2024-03-31T20:22:33.439Z,99430.06
2024-03-31T20:25:00.623Z,99423.84
2024-03-31T20:27:27.406Z,99420.53
2024-03-31T20:29:54.378Z,99420.41
2024-03-31T20:32:21.021Z,99414.38
2024-03-31T20:34:47.790Z,99418.75
2024-03-31T20:37:14.773Z,99428.50
2024-03-31T20:39:41.837Z,99419.03
2024-03-31T20:42:11.038Z,99420.94
2024-03-31T20:44:37.669Z,99415.84
2024-03-31T20:47:04.569Z,99414.91
2024-03-31T20:49:31.208Z,99410.50
2024-03-31T20:51:57.837Z,99409.56
2024-03-31T20:54:24.463Z,99403.34
2024-03-31T20:56:51.093Z,99387.78
2024-03-31T20:59:17.667Z,99394.00
2024-03-31T21:01:44.312Z,99400.16
2024-03-31T21:04:11.086Z,99396.84
2024-03-31T21:06:37.714Z,99398.66
2024-03-31T21:09:05.619Z,99397.25
2024-03-31T21:11:32.858Z,99402.84
2024-03-31T21:13:59.513Z,99407.38
2024-03-31T21:16:27.434Z,99402.53
2024-03-31T21:18:54.433Z,99406.25
2024-03-31T21:21:26.205Z,99400.03
2024-03-31T21:23:52.850Z,99387.66
2024-03-31T21:26:20.416Z,99388.00
2024-03-31T21:28:47.848Z,99384.16
2024-03-31T21:31:18.315Z,99388.41
2024-03-31T21:33:46.763Z,99392.81
2024-03-31T21:36:23.794Z,99389.38
2024-03-31T21:38:52.190Z,99384.00
2024-03-31T21:41:20.327Z,99380.16
2024-03-31T21:43:48.820Z,99365.81
2024-03-31T21:46:16.674Z,99363.59
2024-03-31T21:48:43.637Z,99359.56
2024-03-31T21:51:12.285Z,99357.94
2024-03-31T21:53:40.599Z,99359.56
2024-03-31T21:56:10.806Z,99350.09
2024-03-31T21:58:40.212Z,99351.31
2024-03-31T22:01:11.841Z,99347.84
2024-03-31T22:03:40.018Z,99352.75
2024-03-31T22:06:17.803Z,99348.50
2024-03-31T22:08:44.480Z,99351.88
2024-03-31T22:11:11.754Z,99364.22
2024-03-31T22:13:38.990Z,99364.22
2024-03-31T22:16:05.935Z,99372.03
2024-03-31T22:18:34.463Z,99370.53
2024-03-31T22:21:03.477Z,99384.38
2024-03-31T22:23:30.997Z,99385.84
2024-03-31T22:25:58.168Z,99374.84
2024-03-31T22:28:25.657Z,99362.06
2024-03-31T22:30:52.299Z,99363.00
2024-03-31T22:33:19.828Z,99365.03
2024-03-31T22:35:46.727Z,99359.34
2024-03-31T22:38:13.743Z,99357.84
2024-03-31T22:40:40.380Z,99366.03
2024-03-31T22:43:07.237Z,99357.63
2024-03-31T22:45:33.885Z,99358.59
2024-03-31T22:48:00.500Z,99362.84
2024-03-31T22:50:27.271Z,99357.50
2024-03-31T22:52:53.947Z,99361.09
2024-03-31T22:55:21.554Z,99362.50
2024-03-31T22:57:48.346Z,99371.69
2024-03-31T23:00:15.168Z,99377.22
2024-03-31T23:02:41.819Z,99383.09
2024-03-31T23:05:08.490Z,99376.81
2024-03-31T23:07:35.223Z,99381.53
2024-03-31T23:10:08.512Z,99384.50
2024-03-31T23:12:35.879Z,99382.00
2024-03-31T23:15:02.853Z,99374.06
2024-03-31T23:17:29.623Z,99370.66
2024-03-31T23:19:56.725Z,99379.28
2024-03-31T23:22:23.815Z,99374.44
2024-03-31T23:24:50.440Z,99373.75
2024-03-31T23:27:17.070Z,99370.16
2024-03-31T23:29:43.826Z,99376.34
2024-03-31T23:32:10.490Z,99382.25
2024-03-31T23:34:37.114Z,99379.78
2024-03-31T23:37:05.985Z,99370.75
2024-03-31T23:39:32.784Z,99356.66
2024-03-31T23:42:00.021Z,99375.59
2024-03-31T23:44:26.735Z,99389.81
2024-03-31T23:46:53.499Z,99382.38
2024-03-31T23:49:20.159Z,99376.34
2024-03-31T23:51:46.852Z,99376.44
2024-03-31T23:54:13.532Z,99374.22
2024-03-31T23:56:40.135Z,99370.91
2024-03-31T23:59:06.764Z,99355.28
